METARs

lähialueen METAR Raportit

 

EFUT - Utti, Kouvola, FINLAND
Etäisyys asemasta: KA 0,7mi, 1km
Päivitetty: 14-11-2018 08:50
Täysin pilvistä
Täysin pilvistä
 Tuulen suunta LLO
Tuuli: LLO 2 mph , 4 km/h
Lämpötila: 41°F , 5°C
Kastepiste: 41°F , 5°C
Kosteus: 100%
Ilmanpaine: 30 inHg , 1016 hPa
Pilvisyys: Täysin pilvistä
Näkyvyys: 6 miles , 10 km
Pilveily: Few Clouds 200 ft
Täysin pilvistä 2200 ft
2018/11/14 06:50 EFUT 140650Z 24002KT 9999 FEW002 OVC022 05/05 Q1016
EFLP - Lappeenranta, FINLAND
Etäisyys asemasta: I 42mi, 67km
Päivitetty: 14-11-2018 08:50
Täysin pilvistä
Täysin pilvistä
 Tuulen suunta LLO
Tuuli: LLO 2 mph , 4 km/h
Lämpötila: 41°F , 5°C
Kastepiste: 39°F , 4°C
Kosteus: 93%
Ilmanpaine: 29.97 inHg , 1015 hPa
Pilvisyys: Täysin pilvistä
Näkyvyys: 6 miles , 10 km
Pilveily: Täysin pilvistä 1600 ft
2018/11/14 06:50 EFLP 140650Z AUTO 24002KT 9999 OVC016 05/04 Q1015

Metar display script from Saratoga-Weather.org

Page generated in 0.49 seconds.